createdAt,value
2023-12-30T00:00:41.142Z,18.5
2023-12-30T00:01:43.020Z,18.5
2023-12-30T00:02:45.666Z,18.5
2023-12-30T00:03:47.682Z,18.5
2023-12-30T00:04:49.937Z,18.5
2023-12-30T00:05:51.850Z,18.5
2023-12-30T00:06:54.145Z,18.5
2023-12-30T00:07:56.217Z,18.5
2023-12-30T00:08:57.907Z,18.4
2023-12-30T00:09:59.862Z,18.4
2023-12-30T00:11:01.801Z,18.5
2023-12-30T00:12:03.572Z,18.5
2023-12-30T00:13:05.916Z,18.5
2023-12-30T00:14:08.673Z,18.6
2023-12-30T00:15:10.364Z,18.5
2023-12-30T00:16:12.284Z,18.5
2023-12-30T00:17:14.130Z,18.5
2023-12-30T00:18:16.090Z,18.5
2023-12-30T00:19:18.767Z,18.5
2023-12-30T00:20:20.996Z,18.5
2023-12-30T00:21:22.958Z,18.5
2023-12-30T00:22:24.953Z,18.5
2023-12-30T00:23:37.356Z,18.5
2023-12-30T00:24:50.755Z,18.5
2023-12-30T00:25:52.764Z,18.4
2023-12-30T00:26:54.519Z,18.4
2023-12-30T00:27:56.513Z,18.5
2023-12-30T00:28:58.746Z,18.4
2023-12-30T00:30:00.456Z,18.4
2023-12-30T00:31:02.499Z,18.5
2023-12-30T00:32:04.721Z,18.5
2023-12-30T00:33:07.322Z,18.5
2023-12-30T00:34:10.757Z,18.5
2023-12-30T00:35:13.215Z,18.5
2023-12-30T00:36:15.151Z,18.5
2023-12-30T00:37:17.089Z,18.5
2023-12-30T00:38:24.949Z,18.5
2023-12-30T00:39:26.761Z,18.5
2023-12-30T00:40:28.841Z,18.5
2023-12-30T00:41:30.938Z,18.5
2023-12-30T00:42:32.605Z,18.5
2023-12-30T00:43:34.414Z,18.5
2023-12-30T00:44:36.360Z,18.5
2023-12-30T00:45:38.254Z,18.5
2023-12-30T00:46:39.939Z,18.5
2023-12-30T00:47:41.871Z,18.5
2023-12-30T00:48:50.808Z,18.5
2023-12-30T00:50:00.595Z,18.5
2023-12-30T00:51:02.484Z,18.4
2023-12-30T00:52:04.410Z,18.5
2023-12-30T00:53:06.350Z,18.5
2023-12-30T00:54:08.144Z,18.5
2023-12-30T00:55:10.137Z,18.5
2023-12-30T00:56:12.106Z,18.5
2023-12-30T00:57:13.914Z,18.5
2023-12-30T00:58:15.665Z,18.5
2023-12-30T00:59:17.894Z,18.5
2023-12-30T01:00:19.609Z,18.5
2023-12-30T01:01:21.574Z,18.5
2023-12-30T01:02:23.664Z,18.5
2023-12-30T01:03:25.496Z,18.5
2023-12-30T01:04:27.681Z,18.5
2023-12-30T01:05:29.849Z,18.5
2023-12-30T01:06:31.723Z,18.4
2023-12-30T01:07:33.509Z,18.4
2023-12-30T01:08:35.741Z,18.4
2023-12-30T01:09:38.211Z,18.4
2023-12-30T01:10:39.912Z,18.4
2023-12-30T01:11:41.664Z,18.4
2023-12-30T01:12:43.309Z,18.4
2023-12-30T01:13:45.013Z,18.5
2023-12-30T01:14:47.397Z,18.4
2023-12-30T01:15:49.296Z,18.4
2023-12-30T01:16:51.376Z,18.4
2023-12-30T01:17:53.212Z,18.4
2023-12-30T01:18:58.243Z,18.4
2023-12-30T01:20:00.421Z,18.3
2023-12-30T01:21:02.107Z,18.4
2023-12-30T01:22:03.991Z,18.4
2023-12-30T01:23:05.722Z,18.4
2023-12-30T01:24:07.440Z,18.4
2023-12-30T01:25:09.313Z,18.4
2023-12-30T01:26:11.595Z,18.4
2023-12-30T01:27:13.423Z,18.4
2023-12-30T01:28:15.164Z,18.4
2023-12-30T01:29:16.960Z,18.4
2023-12-30T01:30:18.943Z,18.3
2023-12-30T01:31:21.218Z,18.3
2023-12-30T01:32:23.520Z,18.3
2023-12-30T01:33:25.531Z,18.3
2023-12-30T01:34:30.468Z,18.3
2023-12-30T01:35:32.764Z,18.3
2023-12-30T01:36:34.444Z,18.3
2023-12-30T01:37:36.222Z,18.3
2023-12-30T01:38:38.505Z,18.2
2023-12-30T01:39:40.225Z,18.2
2023-12-30T01:40:41.977Z,18.2
2023-12-30T01:41:43.718Z,18.2
2023-12-30T01:42:45.996Z,18.2
2023-12-30T01:43:48.316Z,18.2
2023-12-30T01:44:50.139Z,18.3
2023-12-30T01:45:52.077Z,18.3
2023-12-30T01:46:53.904Z,18.2
2023-12-30T01:47:55.866Z,18.2
2023-12-30T01:48:58.340Z,18.2
2023-12-30T01:50:00.628Z,18.2
2023-12-30T01:51:02.359Z,18.2
2023-12-30T01:52:04.272Z,18.2
2023-12-30T01:53:06.567Z,18.2
2023-12-30T01:54:08.744Z,18.2
2023-12-30T01:55:13.486Z,18.2
2023-12-30T01:56:15.591Z,18.2
2023-12-30T01:57:17.338Z,18.2
2023-12-30T01:58:19.146Z,18.2
2023-12-30T01:59:20.997Z,18.2
2023-12-30T02:00:22.680Z,18.2
2023-12-30T02:01:24.817Z,18.1
2023-12-30T02:02:26.936Z,18.2
2023-12-30T02:03:28.769Z,18.2
2023-12-30T02:04:30.976Z,18.2
2023-12-30T02:05:33.356Z,18.2
2023-12-30T02:06:35.162Z,18.2
2023-12-30T02:07:36.865Z,18.2
2023-12-30T02:08:38.585Z,18.2
2023-12-30T02:09:40.321Z,18.2
2023-12-30T02:10:42.064Z,18.2
2023-12-30T02:11:44.104Z,18.2
2023-12-30T02:12:46.306Z,18.2
2023-12-30T02:13:48.442Z,18.2
2023-12-30T02:14:50.173Z,18.2
2023-12-30T02:15:52.019Z,18.2
2023-12-30T02:16:53.821Z,18.1
2023-12-30T02:17:55.681Z,18.2
2023-12-30T02:18:58.012Z,18.2
2023-12-30T02:20:00.562Z,18.2
2023-12-30T02:21:02.754Z,18.1
2023-12-30T02:22:04.509Z,18.1
2023-12-30T02:23:07.178Z,18.1
2023-12-30T02:24:08.951Z,18.2
2023-12-30T02:25:10.735Z,18.2
2023-12-30T02:26:12.522Z,18.2
2023-12-30T02:27:14.348Z,18.2
2023-12-30T02:28:16.375Z,18.2
2023-12-30T02:29:18.499Z,18.1
2023-12-30T02:30:20.385Z,18.1
2023-12-30T02:31:22.325Z,18.2
2023-12-30T02:32:24.411Z,18.1
2023-12-30T02:33:26.584Z,18.1
2023-12-30T02:34:29.192Z,18.1
2023-12-30T02:35:31.353Z,18.2
2023-12-30T02:36:33.078Z,18.1
2023-12-30T02:37:35.059Z,18.1
2023-12-30T02:38:37.092Z,18.1
2023-12-30T02:39:38.763Z,18.1
2023-12-30T02:40:40.706Z,18.1
2023-12-30T02:41:42.731Z,18.1
2023-12-30T02:42:45.461Z,18.1
2023-12-30T02:43:47.375Z,18.2
2023-12-30T02:44:49.321Z,18.2
2023-12-30T02:45:51.080Z,18.2
2023-12-30T02:46:52.834Z,18.2
2023-12-30T02:47:55.022Z,18.2
2023-12-30T02:48:57.385Z,18.2
2023-12-30T02:49:59.840Z,18.1
2023-12-30T02:51:01.874Z,18.1
2023-12-30T02:52:03.664Z,18.1
2023-12-30T02:53:05.691Z,18.1
2023-12-30T02:54:07.646Z,18.1
2023-12-30T02:55:09.510Z,18.1
2023-12-30T02:56:11.594Z,18.1
2023-12-30T02:57:13.512Z,18.1
2023-12-30T02:58:15.477Z,18.1
2023-12-30T02:59:17.406Z,18.2
2023-12-30T03:00:19.867Z,18.1
2023-12-30T03:01:24.626Z,18.2
2023-12-30T03:02:26.874Z,18.1
2023-12-30T03:03:28.657Z,18.1
2023-12-30T03:04:30.576Z,17.8
2023-12-30T03:05:32.693Z,17.6
2023-12-30T03:06:34.512Z,17.8
2023-12-30T03:07:36.245Z,18.1
2023-12-30T03:08:37.994Z,18
2023-12-30T03:09:39.691Z,18
2023-12-30T03:10:41.682Z,18
2023-12-30T03:11:43.979Z,18.1
2023-12-30T03:12:45.754Z,18.2
2023-12-30T03:13:47.553Z,18.2
2023-12-30T03:14:49.277Z,18.2
2023-12-30T03:15:51.058Z,18.2
2023-12-30T03:16:52.990Z,18.2
2023-12-30T03:17:55.142Z,18.3
2023-12-30T03:18:57.812Z,18.3
2023-12-30T03:20:00.533Z,18.3
2023-12-30T03:21:02.555Z,18.3
2023-12-30T03:22:04.277Z,18.3
2023-12-30T03:23:06.073Z,18.3
2023-12-30T03:24:07.928Z,18.3
2023-12-30T03:25:10.033Z,18.3
2023-12-30T03:26:12.134Z,18.3
2023-12-30T03:27:13.914Z,18.3
2023-12-30T03:28:15.966Z,18.2
2023-12-30T03:29:18.245Z,18.2
2023-12-30T03:30:20.261Z,18.2
2023-12-30T03:31:22.462Z,18.2
2023-12-30T03:32:24.577Z,18.2
2023-12-30T03:33:26.578Z,18.2
2023-12-30T03:34:28.853Z,18.1
2023-12-30T03:35:31.141Z,18.2
2023-12-30T03:36:33.065Z,18.1
2023-12-30T03:37:34.982Z,18.2
2023-12-30T03:38:36.890Z,18.1
2023-12-30T03:39:38.592Z,18.2
2023-12-30T03:40:40.404Z,18.1
2023-12-30T03:41:42.226Z,18.1
2023-12-30T03:42:43.918Z,18.1
2023-12-30T03:43:46.297Z,18.2
2023-12-30T03:44:48.638Z,18.1
2023-12-30T03:45:50.523Z,18.1
2023-12-30T03:46:52.636Z,18.1
2023-12-30T03:47:54.607Z,18.1
2023-12-30T03:48:56.992Z,18.1
2023-12-30T03:49:59.187Z,18.1
2023-12-30T03:51:01.234Z,18.1
2023-12-30T03:52:02.974Z,18.1
2023-12-30T03:53:05.319Z,18.1
2023-12-30T03:54:07.294Z,18.1
2023-12-30T03:55:09.500Z,18.1
2023-12-30T03:56:11.532Z,18.1
2023-12-30T03:57:13.255Z,18.1
2023-12-30T03:58:15.124Z,18.1
2023-12-30T03:59:17.106Z,18.1
2023-12-30T04:00:18.860Z,18.1
2023-12-30T04:01:20.763Z,18.1
2023-12-30T04:02:23.278Z,18.1
2023-12-30T04:03:25.366Z,18.1
2023-12-30T04:04:27.594Z,18.1
2023-12-30T04:05:29.951Z,18.1
2023-12-30T04:06:32.097Z,18.1
2023-12-30T04:07:34.026Z,18.1
2023-12-30T04:08:35.867Z,18.1
2023-12-30T04:09:37.542Z,18.1
2023-12-30T04:10:39.266Z,18.1
2023-12-30T04:11:41.179Z,18.1
2023-12-30T04:12:43.533Z,18.1
2023-12-30T04:13:45.456Z,18.1
2023-12-30T04:14:47.893Z,18.1
2023-12-30T04:15:49.789Z,18.1
2023-12-30T04:16:51.904Z,18.1
2023-12-30T04:17:53.966Z,18.1
2023-12-30T04:18:56.133Z,18.1
2023-12-30T04:19:58.437Z,18.1
2023-12-30T04:21:00.492Z,18.1
2023-12-30T04:22:02.436Z,18.1
2023-12-30T04:23:04.830Z,18
2023-12-30T04:24:07.855Z,18
2023-12-30T04:25:10.649Z,18
2023-12-30T04:26:15.585Z,18
2023-12-30T04:27:17.434Z,18
2023-12-30T04:28:19.314Z,18
2023-12-30T04:29:21.374Z,18
2023-12-30T04:30:24.002Z,18
2023-12-30T04:31:26.163Z,17.9
2023-12-30T04:32:28.168Z,18
2023-12-30T04:33:30.348Z,17.9
2023-12-30T04:34:32.628Z,17.9
2023-12-30T04:35:34.689Z,17.9
2023-12-30T04:36:36.469Z,18
2023-12-30T04:37:38.342Z,17.9
2023-12-30T04:38:40.085Z,17.9
2023-12-30T04:39:41.747Z,17.9
2023-12-30T04:40:43.576Z,17.9
2023-12-30T04:41:46.134Z,18
2023-12-30T04:42:47.806Z,17.9
2023-12-30T04:43:49.611Z,17.9
2023-12-30T04:44:51.477Z,17.9
2023-12-30T04:45:53.355Z,17.9
2023-12-30T04:46:55.513Z,17.9
2023-12-30T04:47:57.368Z,17.9
2023-12-30T04:48:59.330Z,17.9
2023-12-30T04:50:01.764Z,17.9
2023-12-30T04:51:03.927Z,17.9
2023-12-30T04:52:05.795Z,17.9
2023-12-30T04:53:07.661Z,17.9
2023-12-30T04:54:09.956Z,17.9
2023-12-30T04:55:11.686Z,17.9
2023-12-30T04:56:13.539Z,17.9
2023-12-30T04:57:15.192Z,17.9
2023-12-30T04:58:16.972Z,17.9
2023-12-30T04:59:19.036Z,17.9
2023-12-30T05:00:24.212Z,17.9
2023-12-30T05:01:26.660Z,17.8
2023-12-30T05:02:29.118Z,17.8
2023-12-30T05:03:31.036Z,17.8
2023-12-30T05:04:33.276Z,17.8
2023-12-30T05:05:35.493Z,17.8
2023-12-30T05:06:37.584Z,17.8
2023-12-30T05:07:39.481Z,17.8
2023-12-30T05:08:41.267Z,17.9
2023-12-30T05:09:42.979Z,17.9
2023-12-30T05:10:44.827Z,17.8
2023-12-30T05:11:47.267Z,17.9
2023-12-30T05:12:49.268Z,17.9
2023-12-30T05:13:51.228Z,17.9
2023-12-30T05:14:53.000Z,17.9
2023-12-30T05:15:54.964Z,17.9
2023-12-30T05:16:56.827Z,17.9
2023-12-30T05:17:58.937Z,17.9
2023-12-30T05:19:01.491Z,17.9
2023-12-30T05:20:03.677Z,17.8
2023-12-30T05:21:05.370Z,17.8
2023-12-30T05:22:07.181Z,17.8
2023-12-30T05:23:09.171Z,17.8
2023-12-30T05:24:10.846Z,17.8
2023-12-30T05:25:12.766Z,17.8
2023-12-30T05:26:14.881Z,17.8
2023-12-30T05:27:16.737Z,17.8
2023-12-30T05:28:18.633Z,17.9
2023-12-30T05:29:20.785Z,17.8
2023-12-30T05:30:22.537Z,17.8
2023-12-30T05:31:24.579Z,17.8
2023-12-30T05:32:26.344Z,17.8
2023-12-30T05:33:28.511Z,17.8
2023-12-30T05:34:30.797Z,17.8
2023-12-30T05:35:32.872Z,17.8
2023-12-30T05:36:34.638Z,17.9
2023-12-30T05:37:36.534Z,17.8
2023-12-30T05:38:38.664Z,17.8
2023-12-30T05:39:40.365Z,17.8
2023-12-30T05:40:42.172Z,17.8
2023-12-30T05:41:44.267Z,17.8
2023-12-30T05:42:46.443Z,17.8
2023-12-30T05:43:48.319Z,17.8
2023-12-30T05:44:50.334Z,17.8
2023-12-30T05:45:52.189Z,17.8
2023-12-30T05:46:54.198Z,17.8
2023-12-30T05:47:56.212Z,17.8
2023-12-30T05:48:59.143Z,17.9
2023-12-30T05:50:01.377Z,17.8
2023-12-30T05:51:03.585Z,17.9
2023-12-30T05:52:05.376Z,17.8
2023-12-30T05:53:07.406Z,17.8
2023-12-30T05:54:09.522Z,17.8
2023-12-30T05:55:11.233Z,17.8
2023-12-30T05:56:15.080Z,17.9
2023-12-30T05:57:16.930Z,17.9
2023-12-30T05:58:18.745Z,17.8
2023-12-30T05:59:20.756Z,17.9
2023-12-30T06:00:22.445Z,17.8
2023-12-30T06:01:24.336Z,17.8
2023-12-30T06:02:26.399Z,17.9
2023-12-30T06:03:28.388Z,17.8
2023-12-30T06:04:30.610Z,17.8
2023-12-30T06:05:32.656Z,17.9
2023-12-30T06:06:34.615Z,17.8
2023-12-30T06:07:36.586Z,17.8
2023-12-30T06:08:38.567Z,17.8
2023-12-30T06:09:40.253Z,17.7
2023-12-30T06:10:42.227Z,17.8
2023-12-30T06:11:44.268Z,17.8
2023-12-30T06:12:46.126Z,17.8
2023-12-30T06:13:47.978Z,17.8
2023-12-30T06:14:49.890Z,17.7
2023-12-30T06:15:51.884Z,17.7
2023-12-30T06:16:54.014Z,17.7
2023-12-30T06:17:56.059Z,17.7
2023-12-30T06:18:58.435Z,17.7
2023-12-30T06:20:00.976Z,17.8
2023-12-30T06:21:03.476Z,17.7
2023-12-30T06:22:06.105Z,17.7
2023-12-30T06:23:07.985Z,17.7
2023-12-30T06:24:09.679Z,17.7
2023-12-30T06:25:11.952Z,17.6
2023-12-30T06:26:13.966Z,17.7
2023-12-30T06:27:15.699Z,17.6
2023-12-30T06:28:17.664Z,17.7
2023-12-30T06:29:20.071Z,17.7
2023-12-30T06:30:22.230Z,17.7
2023-12-30T06:31:24.159Z,17.7
2023-12-30T06:32:26.354Z,17.6
2023-12-30T06:33:28.857Z,17.6
2023-12-30T06:34:31.146Z,17.5
2023-12-30T06:35:33.308Z,17.6
2023-12-30T06:36:34.967Z,17.6
2023-12-30T06:37:36.915Z,17.6
2023-12-30T06:38:38.709Z,17.6
2023-12-30T06:39:40.369Z,17.6
2023-12-30T06:40:42.131Z,17.6
2023-12-30T06:41:43.949Z,17.6
2023-12-30T06:42:45.598Z,17.6
2023-12-30T06:43:47.849Z,17.6
2023-12-30T06:44:49.808Z,17.6
2023-12-30T06:45:51.821Z,17.6
2023-12-30T06:46:56.428Z,17.6
2023-12-30T06:47:58.266Z,17.6
2023-12-30T06:49:00.236Z,17.6
2023-12-30T06:50:02.627Z,17.6
2023-12-30T06:51:05.046Z,17.6
2023-12-30T06:52:06.878Z,17.6
2023-12-30T06:53:08.808Z,17.6
2023-12-30T06:54:10.563Z,17.6
2023-12-30T06:55:25.628Z,17.6
2023-12-30T06:56:47.107Z,17.5
2023-12-30T06:57:48.807Z,17.5
2023-12-30T06:58:50.608Z,17.5
2023-12-30T06:59:52.258Z,17.5
2023-12-30T07:00:54.257Z,17.5
2023-12-30T07:01:56.465Z,17.5
2023-12-30T07:02:58.424Z,17.5
2023-12-30T07:04:00.722Z,17.4
2023-12-30T07:05:02.842Z,17.4
2023-12-30T07:06:04.927Z,17.4
2023-12-30T07:07:06.908Z,17.4
2023-12-30T07:08:09.255Z,17.4
2023-12-30T07:09:10.967Z,17.4
2023-12-30T07:10:12.938Z,17.4
2023-12-30T07:11:15.075Z,17.4
2023-12-30T07:12:16.833Z,17.4
2023-12-30T07:13:18.743Z,17.4
2023-12-30T07:14:20.722Z,17.4
2023-12-30T07:15:22.529Z,17.4
2023-12-30T07:16:24.236Z,17.4
2023-12-30T07:17:26.362Z,17.3
2023-12-30T07:18:28.487Z,17.3
2023-12-30T07:19:30.705Z,17.3
2023-12-30T07:20:32.963Z,17.3
2023-12-30T07:21:34.641Z,17.3
2023-12-30T07:22:36.671Z,17.2
2023-12-30T07:23:38.954Z,17.2
2023-12-30T07:24:40.727Z,17.2
2023-12-30T07:25:42.557Z,17.2
2023-12-30T07:26:44.892Z,17.2
2023-12-30T07:27:47.577Z,17.1
2023-12-30T07:28:49.368Z,17.1
2023-12-30T07:29:51.038Z,17.1
2023-12-30T07:30:53.072Z,17.1
2023-12-30T07:31:55.403Z,17.1
2023-12-30T07:32:57.442Z,17.2
2023-12-30T07:34:00.273Z,17.2
2023-12-30T07:35:03.102Z,17.2
2023-12-30T07:36:05.164Z,17.3
2023-12-30T07:37:07.155Z,17.3
2023-12-30T07:38:09.400Z,17.3
2023-12-30T07:39:11.474Z,17.3
2023-12-30T07:40:13.503Z,17.3
2023-12-30T07:41:15.379Z,17.3
2023-12-30T07:42:20.533Z,17.3
2023-12-30T07:43:25.986Z,17.3
2023-12-30T07:44:27.905Z,17.3
2023-12-30T07:45:29.616Z,17.3
2023-12-30T07:46:31.465Z,17.3
2023-12-30T07:47:33.586Z,17.3
2023-12-30T07:48:35.662Z,17.2
2023-12-30T07:49:37.946Z,17.2
2023-12-30T07:50:40.034Z,17.1
2023-12-30T07:51:41.709Z,17.2
2023-12-30T07:52:43.643Z,17.1
2023-12-30T07:53:46.166Z,17.1
2023-12-30T07:54:48.260Z,17
2023-12-30T07:55:50.017Z,16.9
2023-12-30T07:56:51.855Z,16.9
2023-12-30T07:57:53.661Z,16.9
2023-12-30T07:58:55.451Z,16.8
2023-12-30T07:59:57.211Z,16.8
2023-12-30T08:00:59.183Z,16.9
2023-12-30T08:02:01.738Z,16.8
2023-12-30T08:03:05.028Z,16.8
2023-12-30T08:04:08.491Z,16.8
2023-12-30T08:05:11.419Z,16.7
2023-12-30T08:06:13.465Z,16.8
2023-12-30T08:07:15.187Z,16.7
2023-12-30T08:08:17.250Z,16.7
2023-12-30T08:09:19.079Z,16.7
2023-12-30T08:10:21.084Z,16.7
2023-12-30T08:11:23.297Z,16.7
2023-12-30T08:12:25.046Z,16.7
2023-12-30T08:13:26.892Z,16.7
2023-12-30T08:14:28.622Z,16.7
2023-12-30T08:15:30.460Z,16.7
2023-12-30T08:16:32.455Z,16.7
2023-12-30T08:17:34.705Z,16.7
2023-12-30T08:18:37.232Z,16.7
2023-12-30T08:19:39.663Z,16.7
2023-12-30T08:20:41.742Z,16.7
2023-12-30T08:21:43.747Z,16.8
2023-12-30T08:22:45.629Z,16.7
2023-12-30T08:23:47.856Z,16.7
2023-12-30T08:24:50.110Z,16.7
2023-12-30T08:25:51.947Z,16.7
2023-12-30T08:26:53.716Z,16.7
2023-12-30T08:27:55.520Z,16.7
2023-12-30T08:28:57.401Z,16.7
2023-12-30T08:29:59.273Z,16.7
2023-12-30T08:31:01.360Z,16.8
2023-12-30T08:32:03.372Z,16.8
2023-12-30T08:33:06.420Z,16.8
2023-12-30T08:34:09.918Z,16.8
2023-12-30T08:35:12.155Z,16.8
2023-12-30T08:36:13.859Z,16.8
2023-12-30T08:37:15.609Z,16.8
2023-12-30T08:38:17.532Z,16.8
2023-12-30T08:39:19.272Z,16.8
2023-12-30T08:40:21.299Z,16.8
2023-12-30T08:41:23.148Z,16.8
2023-12-30T08:42:24.883Z,16.9
2023-12-30T08:43:26.663Z,16.9
2023-12-30T08:44:28.705Z,16.9
2023-12-30T08:45:30.594Z,16.9
2023-12-30T08:46:32.729Z,16.9
2023-12-30T08:47:35.272Z,16.9
2023-12-30T08:48:37.723Z,16.9
2023-12-30T08:49:40.286Z,16.9
2023-12-30T08:50:42.266Z,16.9
2023-12-30T08:51:43.981Z,16.9
2023-12-30T08:52:45.883Z,16.9
2023-12-30T08:53:47.650Z,16.9
2023-12-30T08:54:49.531Z,16.9
2023-12-30T08:55:51.509Z,16.9
2023-12-30T08:56:53.349Z,16.9
2023-12-30T08:57:55.155Z,16.9
2023-12-30T08:58:57.167Z,16.9
2023-12-30T08:59:58.877Z,16.9
2023-12-30T09:01:00.990Z,16.9
2023-12-30T09:02:03.396Z,16.9
2023-12-30T09:03:06.051Z,16.9
2023-12-30T09:04:09.312Z,16.9
2023-12-30T09:05:11.898Z,16.9
2023-12-30T09:06:13.925Z,17
2023-12-30T09:07:16.636Z,17
2023-12-30T09:08:18.589Z,17
2023-12-30T09:09:20.289Z,17
2023-12-30T09:10:22.139Z,17
2023-12-30T09:11:24.410Z,17
2023-12-30T09:12:26.290Z,16.9
2023-12-30T09:13:28.096Z,17
2023-12-30T09:14:29.941Z,17
2023-12-30T09:15:31.894Z,17
2023-12-30T09:16:33.806Z,17
2023-12-30T09:17:36.374Z,17
2023-12-30T09:18:38.939Z,17
2023-12-30T09:19:41.374Z,17.1
2023-12-30T09:20:43.622Z,17.1
2023-12-30T09:21:45.677Z,17.1
2023-12-30T09:22:47.741Z,17
2023-12-30T09:23:49.410Z,17.1
2023-12-30T09:24:51.156Z,17.1
2023-12-30T09:25:52.853Z,17.1
2023-12-30T09:26:54.656Z,17.1
2023-12-30T09:27:56.612Z,17.1
2023-12-30T09:28:58.605Z,17.1
2023-12-30T09:30:00.488Z,17.1
2023-12-30T09:31:02.840Z,17.1
2023-12-30T09:32:05.688Z,17.2
2023-12-30T09:33:12.233Z,17.2
2023-12-30T09:34:29.739Z,17.2
2023-12-30T09:35:47.432Z,17.1
2023-12-30T09:36:49.158Z,17.1
2023-12-30T09:37:50.909Z,17.1
2023-12-30T09:38:52.620Z,17.1
2023-12-30T09:39:54.351Z,17.1
2023-12-30T09:40:56.272Z,17.1
2023-12-30T09:41:58.044Z,17.2
2023-12-30T09:43:00.046Z,17.2
2023-12-30T09:44:02.439Z,17.2
2023-12-30T09:45:04.164Z,17.2
2023-12-30T09:46:06.519Z,17.2
2023-12-30T09:47:08.826Z,17.2
2023-12-30T09:48:11.326Z,17.2
2023-12-30T09:49:13.575Z,17.2
2023-12-30T09:50:15.376Z,17.2
2023-12-30T09:51:17.139Z,17.2
2023-12-30T09:52:19.034Z,17.2
2023-12-30T09:53:20.888Z,17.2
2023-12-30T09:54:38.178Z,17.2
2023-12-30T09:55:51.582Z,17.2
2023-12-30T09:56:53.442Z,17.2
2023-12-30T09:57:55.377Z,17.2
2023-12-30T09:58:57.716Z,17.2
2023-12-30T09:59:59.622Z,17.2
2023-12-30T10:01:01.675Z,17.3
2023-12-30T10:02:04.246Z,17.3
2023-12-30T10:03:07.074Z,17.3
2023-12-30T10:04:09.133Z,17.3
2023-12-30T10:05:11.880Z,17.3
2023-12-30T10:06:13.826Z,17.3
2023-12-30T10:07:15.530Z,17.3
2023-12-30T10:08:17.535Z,17.3
2023-12-30T10:09:19.208Z,17.3
2023-12-30T10:10:21.140Z,17.3
2023-12-30T10:11:23.160Z,17.3
2023-12-30T10:12:24.909Z,17.4
2023-12-30T10:13:26.952Z,17.4
2023-12-30T10:14:29.961Z,17.3
2023-12-30T10:15:31.923Z,17.3
2023-12-30T10:16:33.812Z,17.3
2023-12-30T10:17:36.178Z,17.3
2023-12-30T10:18:38.479Z,17.4
2023-12-30T10:19:41.012Z,17.3
2023-12-30T10:20:42.768Z,17.4
2023-12-30T10:21:44.467Z,17.4
2023-12-30T10:22:46.151Z,17.4
2023-12-30T10:23:47.856Z,17.4
2023-12-30T10:24:49.648Z,17.4
2023-12-30T10:25:51.536Z,17.4
2023-12-30T10:26:53.574Z,17.4
2023-12-30T10:27:55.324Z,17.4
2023-12-30T10:28:57.691Z,17.4
2023-12-30T10:30:01.776Z,17.4
2023-12-30T10:31:04.100Z,17.4
2023-12-30T10:32:06.602Z,17.4
2023-12-30T10:33:09.254Z,17.5
2023-12-30T10:34:12.649Z,17.5
2023-12-30T10:35:15.044Z,17.5
2023-12-30T10:36:16.713Z,17.5
2023-12-30T10:37:18.675Z,17.5
2023-12-30T10:38:20.792Z,17.5
2023-12-30T10:39:22.473Z,17.5
2023-12-30T10:40:24.267Z,17.5
2023-12-30T10:41:26.285Z,17.5
2023-12-30T10:42:28.101Z,17.5
2023-12-30T10:43:29.908Z,17.5
2023-12-30T10:44:32.248Z,17.5
2023-12-30T10:45:34.010Z,17.5
2023-12-30T10:46:35.843Z,17.5
2023-12-30T10:47:37.925Z,17.5
2023-12-30T10:48:39.806Z,17.5
2023-12-30T10:49:41.696Z,17.6
2023-12-30T10:50:43.938Z,17.5
2023-12-30T10:51:46.288Z,17.5
2023-12-30T10:52:47.997Z,17.6
2023-12-30T10:53:49.789Z,17.5
2023-12-30T10:54:51.486Z,17.6
2023-12-30T10:55:53.219Z,17.6
2023-12-30T10:56:54.942Z,17.6
2023-12-30T10:57:56.731Z,17.6
2023-12-30T10:58:58.540Z,17.6
2023-12-30T11:00:01.016Z,17.6
2023-12-30T11:01:03.068Z,17.6
2023-12-30T11:02:05.695Z,17.6
2023-12-30T11:03:07.918Z,17.6
2023-12-30T11:04:10.582Z,17.6
2023-12-30T11:05:13.037Z,17.6
2023-12-30T11:06:15.440Z,17.6
2023-12-30T11:07:17.579Z,17.6
2023-12-30T11:08:19.573Z,17.6
2023-12-30T11:09:21.281Z,17.6
2023-12-30T11:10:23.260Z,17.6
2023-12-30T11:11:25.308Z,17.8
2023-12-30T11:12:27.029Z,17.8
2023-12-30T11:13:28.822Z,17.5
2023-12-30T11:14:30.981Z,17.6
2023-12-30T11:15:33.689Z,18
2023-12-30T11:16:35.479Z,18
2023-12-30T11:17:37.455Z,18
2023-12-30T11:18:39.770Z,18
2023-12-30T11:19:42.230Z,18.1
2023-12-30T11:20:44.192Z,18
2023-12-30T11:21:46.951Z,18
2023-12-30T11:22:49.587Z,18
2023-12-30T11:23:51.282Z,17.9
2023-12-30T11:24:53.021Z,17.9
2023-12-30T11:25:54.900Z,17.9
2023-12-30T11:26:56.656Z,17.9
2023-12-30T11:27:58.592Z,17.9
2023-12-30T11:29:00.520Z,17.9
2023-12-30T11:30:02.265Z,17.9
2023-12-30T11:31:04.598Z,17.9
2023-12-30T11:32:06.845Z,17.9
2023-12-30T11:33:09.144Z,17.9
2023-12-30T11:34:11.403Z,17.9
2023-12-30T11:35:13.617Z,17.9
2023-12-30T11:36:15.319Z,17.8
2023-12-30T11:37:17.099Z,17.9
2023-12-30T11:38:19.173Z,17.9
2023-12-30T11:39:20.976Z,17.9
2023-12-30T11:40:22.911Z,17.8
2023-12-30T11:41:24.910Z,17.8
2023-12-30T11:42:42.341Z,17.9
2023-12-30T11:43:50.758Z,17.8
2023-12-30T11:44:53.707Z,17.8
2023-12-30T11:45:59.702Z,17.8
2023-12-30T11:47:02.369Z,17.8
2023-12-30T11:48:04.450Z,17.8
2023-12-30T11:49:06.810Z,17.8
2023-12-30T11:50:13.224Z,17.8
2023-12-30T11:51:15.424Z,17.8
2023-12-30T11:52:17.249Z,17.8
2023-12-30T11:53:19.294Z,17.8
2023-12-30T11:54:21.126Z,17.9
2023-12-30T11:55:22.894Z,17.9
2023-12-30T11:56:25.032Z,17.9
2023-12-30T11:57:26.817Z,17.9
2023-12-30T11:58:28.783Z,17.9
2023-12-30T11:59:30.792Z,17.9
2023-12-30T12:00:32.502Z,17.9
2023-12-30T12:01:34.661Z,17.9
2023-12-30T12:02:37.378Z,17.9
2023-12-30T12:03:39.175Z,17.9
2023-12-30T12:04:41.314Z,17.9
2023-12-30T12:05:43.884Z,17.9
2023-12-30T12:06:46.003Z,17.9
2023-12-30T12:07:47.837Z,17.9
2023-12-30T12:08:49.515Z,17.9
2023-12-30T12:09:51.191Z,17.9
2023-12-30T12:10:52.967Z,17.9
2023-12-30T12:11:55.124Z,17.9
2023-12-30T12:12:58.386Z,18
2023-12-30T12:14:00.741Z,17.9
2023-12-30T12:15:02.547Z,17.9
2023-12-30T12:16:04.410Z,18
2023-12-30T12:17:06.260Z,18
2023-12-30T12:18:08.386Z,18
2023-12-30T12:19:11.108Z,18
2023-12-30T12:20:13.650Z,17.9
2023-12-30T12:21:15.396Z,17.9
2023-12-30T12:22:17.222Z,18
2023-12-30T12:23:19.031Z,18
2023-12-30T12:24:20.727Z,18
2023-12-30T12:25:22.454Z,18
2023-12-30T12:26:24.238Z,18
2023-12-30T12:27:25.971Z,18
2023-12-30T12:28:27.736Z,18
2023-12-30T12:29:29.514Z,18
2023-12-30T12:30:31.440Z,18
2023-12-30T12:31:33.570Z,18
2023-12-30T12:32:35.847Z,18
2023-12-30T12:33:38.065Z,18
2023-12-30T12:34:40.442Z,18.1
2023-12-30T12:35:42.568Z,18
2023-12-30T12:36:44.301Z,18
2023-12-30T12:37:46.255Z,18.1
2023-12-30T12:38:48.452Z,18.1
2023-12-30T12:39:50.198Z,18.1
2023-12-30T12:40:52.030Z,18.1
2023-12-30T12:41:54.014Z,18.1
2023-12-30T12:42:55.738Z,18.1
2023-12-30T12:43:57.907Z,18.1
2023-12-30T12:44:59.765Z,18.1
2023-12-30T12:46:01.739Z,18.1
2023-12-30T12:47:03.652Z,18.1
2023-12-30T12:48:05.674Z,18.1
2023-12-30T12:49:08.478Z,18.1
2023-12-30T12:50:11.067Z,18.2
2023-12-30T12:51:12.789Z,18.2
2023-12-30T12:52:14.570Z,18.2
2023-12-30T12:53:16.547Z,18.2
2023-12-30T12:54:18.212Z,18.2
2023-12-30T12:55:20.010Z,18.2
2023-12-30T12:56:22.077Z,18.2
2023-12-30T12:57:23.814Z,18.2
2023-12-30T12:58:25.693Z,18.2
2023-12-30T12:59:27.585Z,18.2
2023-12-30T13:00:29.325Z,18.2
2023-12-30T13:01:31.355Z,18.2
2023-12-30T13:02:33.550Z,18.2
2023-12-30T13:03:35.267Z,18.2
2023-12-30T13:04:37.844Z,18.3
2023-12-30T13:05:40.104Z,18.3
2023-12-30T13:06:42.323Z,18.3
2023-12-30T13:07:44.346Z,18.3
2023-12-30T13:08:47.730Z,18.3
2023-12-30T13:09:49.458Z,18.3
2023-12-30T13:10:51.352Z,18.3
2023-12-30T13:11:53.371Z,18.3
2023-12-30T13:12:55.117Z,18.3
2023-12-30T13:13:57.065Z,18.3
2023-12-30T13:14:59.108Z,18.4
2023-12-30T13:16:01.211Z,18.4
2023-12-30T13:17:03.451Z,18.4
2023-12-30T13:18:05.517Z,18.4
2023-12-30T13:19:08.215Z,18.4
2023-12-30T13:20:11.715Z,18.4
2023-12-30T13:21:13.823Z,18.4
2023-12-30T13:22:15.572Z,18.4
2023-12-30T13:23:17.734Z,18.4
2023-12-30T13:24:19.553Z,18.4
2023-12-30T13:25:21.502Z,18.4
2023-12-30T13:26:23.877Z,18.4
2023-12-30T13:27:26.475Z,18.5
2023-12-30T13:28:28.411Z,18.5
2023-12-30T13:29:30.418Z,18.5
2023-12-30T13:30:32.346Z,18.5
2023-12-30T13:31:34.188Z,18.5
2023-12-30T13:32:36.187Z,18.5
2023-12-30T13:33:38.530Z,18.5
2023-12-30T13:34:40.948Z,18.5
2023-12-30T13:35:43.536Z,18.5
2023-12-30T13:36:45.265Z,18.5
2023-12-30T13:37:48.009Z,18.5
2023-12-30T13:38:50.178Z,18.5
2023-12-30T13:39:51.870Z,18.5
2023-12-30T13:40:53.644Z,18.5
2023-12-30T13:41:56.012Z,18.5
2023-12-30T13:42:57.984Z,18.5
2023-12-30T13:44:00.091Z,18.5
2023-12-30T13:45:02.197Z,18.5
2023-12-30T13:46:04.207Z,18.5
2023-12-30T13:47:06.000Z,18.5
2023-12-30T13:48:08.211Z,18.5
2023-12-30T13:49:11.758Z,18.5
2023-12-30T13:50:14.100Z,18.5
2023-12-30T13:51:16.496Z,18.5
2023-12-30T13:52:18.749Z,18.5
2023-12-30T13:53:20.746Z,18.6